Time;durP1;ratioP1;P1;durP2;ratioP2;P2;SDS_P1;SDS_P2;PMS_P1;PMS_P2;Temp;Humidity;BMP_temperature;BMP_pressure;BME280_temperature;BME280_humidity;BME280_pressure;Samples;Min_cycle;Max_cycle;Signal;HPM_P1;HPM_P2
2023/01/04 00:00:30;;;;;;;21.08;10.93;;;;;;;;;;10425050;28;20080;-77
2023/01/04 00:05:30;;;;;;;17.77;11.93;;;;;;;;;;10442417;28;20025;-78
2023/01/04 00:10:31;;;;;;;18.10;11.18;;;;;;;;;;10423852;28;20025;-77
2023/01/04 00:15:31;;;;;;;20.63;11.80;;;;;;;;;;10425225;28;20021;-73
2023/01/04 00:20:32;;;;;;;20.05;11.10;;;;;;;;;;10423954;28;20064;-76
2023/01/04 00:25:32;;;;;;;16.10;10.52;;;;;;;;;;10440226;28;20029;-79
2023/01/04 00:30:32;;;;;;;18.33;9.60;;;;;;;;;;10405999;28;20177;-78
2023/01/04 00:35:32;;;;;;;22.50;9.90;;;;;;;;;;10441446;28;20048;-78
2023/01/04 00:40:33;;;;;;;19.17;10.32;;;;;;;;;;10421786;28;20029;-77
2023/01/04 00:45:33;;;;;;;19.20;10.40;;;;;;;;;;10414014;28;20071;-76
2023/01/04 00:50:33;;;;;;;16.52;10.35;;;;;;;;;;10413565;28;20477;-76
2023/01/04 00:55:33;;;;;;;19.38;10.52;;;;;;;;;;10426523;28;20746;-76
2023/01/04 01:00:34;;;;;;;18.05;9.63;;;;;;;;;;10423832;28;20511;-75
2023/01/04 01:05:35;;;;;;;19.92;11.55;;;;;;;;;;10409358;28;20548;-76
2023/01/04 01:10:35;;;;;;;22.95;10.80;;;;;;;;;;10423017;28;20059;-77
2023/01/04 01:15:35;;;;;;;18.90;11.00;;;;;;;;;;10423003;28;20530;-74
2023/01/04 01:20:40;;;;;;;19.85;10.85;;;;;;;;;;10420467;28;20556;-77
2023/01/04 01:25:41;;;;;;;21.27;11.85;;;;;;;;;;10421844;28;20040;-77
2023/01/04 01:30:41;;;;;;;22.20;12.82;;;;;;;;;;10440272;28;20021;-78
2023/01/04 01:35:42;;;;;;;22.52;11.95;;;;;;;;;;10422343;28;20021;-76
2023/01/04 01:40:42;;;;;;;26.33;13.43;;;;;;;;;;10405639;28;20025;-75
2023/01/04 01:45:43;;;;;;;22.70;12.35;;;;;;;;;;10408179;28;20017;-75
2023/01/04 01:50:49;;;;;;;23.17;12.10;;;;;;;;;;10429415;28;20028;-76
2023/01/04 01:55:50;;;;;;;21.75;10.85;;;;;;;;;;10447029;28;20025;-75
2023/01/04 02:00:50;;;;;;;25.52;12.65;;;;;;;;;;10428968;28;20132;-77
2023/01/04 02:05:52;;;;;;;21.07;11.53;;;;;;;;;;10454286;28;20403;-76
2023/01/04 02:10:52;;;;;;;22.25;12.32;;;;;;;;;;10428749;28;20592;-77
2023/01/04 02:16:05;;;;;;;24.73;12.98;;;;;;;;;;10428465;28;20028;-77
2023/01/04 02:21:07;;;;;;;23.40;12.77;;;;;;;;;;10419521;28;20025;-77
2023/01/04 02:26:24;;;;;;;23.80;13.25;;;;;;;;;;10428130;28;20048;-78
2023/01/04 02:31:28;;;;;;;24.95;12.15;;;;;;;;;;10428253;28;20028;-77
2023/01/04 02:36:46;;;;;;;21.58;11.90;;;;;;;;;;10427515;28;20044;-74
2023/01/04 02:41:46;;;;;;;;;;;;;;;;;;10427803;28;20115;-76
2023/01/04 02:46:57;;;;;;;29.90;12.88;;;;;;;;;;10444361;28;19954;-77
2023/01/04 02:51:57;;;;;;;29.35;14.88;;;;;;;;;;10428206;28;20518;-75
2023/01/04 02:57:09;;;;;;;20.20;12.77;;;;;;;;;;10426399;28;20113;-77
2023/01/04 03:08:17;;;;;;;25.45;14.13;;;;;;;;;;10416698;28;20509;-74
2023/01/04 03:13:17;;;;;;;28.13;15.02;;;;;;;;;;10396521;28;20079;-76
2023/01/04 03:18:20;;;;;;;27.20;14.70;;;;;;;;;;10401396;28;20392;-78
2023/01/04 03:50:22;;;;;;;29.42;14.77;;;;;;;;;;10402676;28;20025;-76
2023/01/04 03:55:23;;;;;;;29.27;14.02;;;;;;;;;;10400608;28;20083;-77
2023/01/04 04:00:23;;;;;;;33.90;15.38;;;;;;;;;;10418010;28;20045;-75
2023/01/04 04:10:43;;;;;;;29.73;14.80;;;;;;;;;;10433263;28;20029;-78
2023/01/04 04:15:43;;;;;;;34.58;13.75;;;;;;;;;;10424875;28;20483;-76
2023/01/04 04:20:43;;;;;;;26.35;14.07;;;;;;;;;;10418225;28;20432;-76
2023/01/04 04:25:44;;;;;;;26.50;13.88;;;;;;;;;;10410217;28;20498;-76
2023/01/04 04:30:44;;;;;;;21.20;12.23;;;;;;;;;;10440759;28;20033;-77
2023/01/04 04:35:48;;;;;;;23.45;11.43;;;;;;;;;;10435115;28;20510;-75
2023/01/04 04:46:07;;;;;;;24.30;12.55;;;;;;;;;;10426507;28;20017;-79
2023/01/04 04:51:08;;;;;;;29.27;12.32;;;;;;;;;;10421352;28;20029;-76
2023/01/04 04:56:08;;;;;;;25.10;11.25;;;;;;;;;;10420977;28;20021;-77
2023/01/04 05:01:08;;;;;;;27.10;12.93;;;;;;;;;;10409511;28;20104;-77
2023/01/04 05:06:09;;;;;;;22.73;11.27;;;;;;;;;;10440530;28;20355;-77
2023/01/04 05:11:10;;;;;;;25.67;13.68;;;;;;;;;;10404580;28;20083;-76
2023/01/04 05:16:10;;;;;;;34.88;14.45;;;;;;;;;;10440885;28;20032;-77
2023/01/04 05:21:10;;;;;;;31.63;15.13;;;;;;;;;;10424579;28;20025;-77
2023/01/04 05:26:10;;;;;;;29.75;15.23;;;;;;;;;;10417069;28;20033;-76
2023/01/04 05:31:11;;;;;;;28.80;14.82;;;;;;;;;;10424992;28;20078;-77
2023/01/04 05:36:11;;;;;;;30.35;14.73;;;;;;;;;;10429003;28;20051;-73
2023/01/04 05:46:30;;;;;;;26.75;15.27;;;;;;;;;;10447563;28;20036;-77
2023/01/04 05:51:30;;;;;;;25.87;12.97;;;;;;;;;;10429359;28;20021;-76
2023/01/04 05:56:31;;;;;;;26.47;14.20;;;;;;;;;;10429131;28;20016;-76
2023/01/04 06:01:31;;;;;;;32.08;15.52;;;;;;;;;;10421036;28;20050;-77
2023/01/04 06:06:32;;;;;;;28.90;14.52;;;;;;;;;;10420653;28;20021;-76
2023/01/04 06:11:32;;;;;;;32.88;15.38;;;;;;;;;;10429540;28;20115;-74
2023/01/04 06:16:32;;;;;;;24.85;12.82;;;;;;;;;;10427382;28;20040;-73
2023/01/04 06:21:32;;;;;;;27.52;13.73;;;;;;;;;;10419035;28;20024;-77
2023/01/04 06:26:33;;;;;;;26.02;13.00;;;;;;;;;;10409738;28;20035;-79
2023/01/04 06:31:33;;;;;;;24.95;12.25;;;;;;;;;;10418254;28;20055;-78
2023/01/04 06:36:34;;;;;;;27.23;11.53;;;;;;;;;;10427446;28;20115;-77
2023/01/04 06:41:35;;;;;;;27.73;13.13;;;;;;;;;;10426928;28;20280;-74
2023/01/04 06:46:35;;;;;;;19.83;12.00;;;;;;;;;;10427582;28;20017;-76
2023/01/04 06:51:35;;;;;;;37.87;12.10;;;;;;;;;;10411594;28;20649;-75
2023/01/04 06:56:36;;;;;;;26.60;11.82;;;;;;;;;;10427483;28;20029;-76
2023/01/04 07:01:36;;;;;;;22.98;12.57;;;;;;;;;;10426341;28;20286;-77
2023/01/04 07:06:36;;;;;;;25.60;11.65;;;;;;;;;;10406307;28;20080;-78
2023/01/04 07:11:37;;;;;;;25.20;10.75;;;;;;;;;;10418266;28;20025;-77
2023/01/04 07:16:37;;;;;;;24.00;10.95;;;;;;;;;;10427016;28;20445;-77
2023/01/04 07:21:37;;;;;;;23.63;9.80;;;;;;;;;;10427418;28;20052;-77
2023/01/04 07:26:38;;;;;;;17.67;10.15;;;;;;;;;;10444425;28;20059;-76
2023/01/04 07:31:38;;;;;;;22.63;9.90;;;;;;;;;;10450458;28;20032;-71
2023/01/04 07:36:39;;;;;;;21.67;10.73;;;;;;;;;;10430177;28;20482;-72
2023/01/04 07:41:39;;;;;;;22.00;10.55;;;;;;;;;;10426479;28;20025;-76
2023/01/04 07:46:41;;;;;;;20.77;10.77;;;;;;;;;;10425511;28;20020;-76
2023/01/04 07:51:41;;;;;;;28.88;10.77;;;;;;;;;;10425706;28;20032;-75
2023/01/04 07:56:42;;;;;;;22.67;11.30;;;;;;;;;;10424217;28;20039;-75
2023/01/04 08:01:42;;;;;;;27.15;12.77;;;;;;;;;;10394989;28;20495;-73
2023/01/04 08:06:45;;;;;;;26.98;11.50;;;;;;;;;;10441780;28;20025;-77
2023/01/04 08:11:45;;;;;;;23.45;11.55;;;;;;;;;;10424137;28;20510;-79
2023/01/04 08:16:46;;;;;;;19.53;10.17;;;;;;;;;;10421601;28;20112;-77
2023/01/04 08:21:46;;;;;;;19.80;9.90;;;;;;;;;;10450588;22;20314;-77
2023/01/04 08:26:47;;;;;;;19.73;9.57;;;;;;;;;;10463604;28;20557;-73
2023/01/04 08:31:47;;;;;;;26.13;11.18;;;;;;;;;;10449050;28;20016;-76
2023/01/04 08:36:49;;;;;;;15.70;9.40;;;;;;;;;;10482306;28;20021;-75
2023/01/04 08:41:55;;;;;;;26.30;11.93;;;;;;;;;;10459475;28;20100;-73
2023/01/04 08:46:55;;;;;;;22.80;11.05;;;;;;;;;;10452726;28;20028;-73
2023/01/04 08:51:56;;;;;;;26.10;11.70;;;;;;;;;;10459240;28;20021;-77
2023/01/04 08:56:56;;;;;;;28.77;12.13;;;;;;;;;;10462863;28;20354;-78
2023/01/04 09:01:56;;;;;;;21.52;10.73;;;;;;;;;;10463145;28;20025;-76
2023/01/04 09:06:56;;;;;;;20.75;11.60;;;;;;;;;;10481413;28;20035;-77
2023/01/04 09:11:58;;;;;;;25.13;12.13;;;;;;;;;;10480102;28;20037;-76
2023/01/04 09:16:58;;;;;;;16.80;10.00;;;;;;;;;;10482344;28;20282;-73
2023/01/04 09:21:59;;;;;;;28.95;11.65;;;;;;;;;;10481122;28;20575;-76
2023/01/04 09:26:59;;;;;;;32.50;12.90;;;;;;;;;;10439423;28;20028;-73
2023/01/04 09:31:59;;;;;;;19.37;11.20;;;;;;;;;;10436639;28;20366;-76
2023/01/04 09:36:59;;;;;;;20.50;10.80;;;;;;;;;;10446392;28;20028;-77
2023/01/04 09:42:04;;;;;;;18.95;10.57;;;;;;;;;;10462307;28;20804;-76
2023/01/04 09:47:24;;;;;;;19.85;11.82;;;;;;;;;;10462739;28;20470;-73
2023/01/04 09:52:36;;;;;;;24.13;11.95;;;;;;;;;;10463831;28;20109;-77
2023/01/04 09:57:42;;;;;;;19.20;9.50;;;;;;;;;;10459990;28;20032;-74
2023/01/04 10:02:51;;;;;;;19.75;9.80;;;;;;;;;;10431496;28;20513;-72
2023/01/04 10:07:52;;;;;;;29.35;11.63;;;;;;;;;;10459134;28;20052;-75
2023/01/04 10:12:52;;;;;;;28.15;12.25;;;;;;;;;;10444059;28;20115;-76
2023/01/04 10:18:02;;;;;;;26.52;11.77;;;;;;;;;;10470400;28;20097;-75
2023/01/04 10:23:08;;;;;;;27.00;12.93;;;;;;;;;;10469305;28;20049;-76
2023/01/04 10:28:21;;;;;;;21.90;10.30;;;;;;;;;;10469400;28;20043;-78
2023/01/04 10:33:36;;;;;;;18.05;10.32;;;;;;;;;;10468962;28;20028;-75
2023/01/04 10:38:38;;;;;;;25.38;10.73;;;;;;;;;;10467009;28;20028;-73
2023/01/04 10:43:55;;;;;;;31.40;12.50;;;;;;;;;;10445598;28;20031;-77
2023/01/04 10:48:59;;;;;;;33.28;12.60;;;;;;;;;;10467150;28;20032;-76
2023/01/04 10:54:10;;;;;;;29.42;12.55;;;;;;;;;;10468037;28;20074;-80
2023/01/04 10:59:28;;;;;;;23.38;12.25;;;;;;;;;;10468970;28;20419;-77
2023/01/04 11:04:39;;;;;;;24.27;12.07;;;;;;;;;;10455741;28;20073;-73
2023/01/04 11:09:43;;;;;;;33.95;13.50;;;;;;;;;;10462999;28;20576;-72
2023/01/04 11:14:43;;;;;;;21.30;10.40;;;;;;;;;;10467178;28;20024;-76
2023/01/04 11:19:43;;;;;;;26.20;11.30;;;;;;;;;;10466229;28;20510;-77
2023/01/04 11:24:44;;;;;;;26.07;11.33;;;;;;;;;;10441937;28;20304;-76
2023/01/04 11:30:17;;;;;;;19.33;10.02;;;;;;;;;;10441666;28;20025;-72
2023/01/04 11:35:47;;;;;;;17.13;9.90;;;;;;;;;;10398780;28;20039;-77
2023/01/04 11:40:55;;;;;;;18.38;9.15;;;;;;;;;;10427605;28;20049;-77
2023/01/04 11:45:58;;;;;;;19.42;10.80;;;;;;;;;;10441512;28;20023;-73
2023/01/04 11:50:59;;;;;;;18.05;10.10;;;;;;;;;;10425312;28;20434;-76
2023/01/04 11:56:19;;;;;;;17.87;11.03;;;;;;;;;;10440865;28;20058;-75
2023/01/04 12:01:23;;;;;;;23.80;12.82;;;;;;;;;;10429262;28;20618;-78
2023/01/04 12:06:29;;;;;;;22.90;11.63;;;;;;;;;;10415860;28;21000;-74
2023/01/04 12:11:34;;;;;;;24.48;11.43;;;;;;;;;;10428207;28;20497;-77
2023/01/04 12:16:44;;;;;;;17.25;10.18;;;;;;;;;;10439164;28;20043;-74
2023/01/04 12:21:46;;;;;;;18.30;10.48;;;;;;;;;;10431928;28;20514;-76
2023/01/04 12:26:47;;;;;;;20.95;10.60;;;;;;;;;;10464607;28;20009;-76
2023/01/04 12:31:48;;;;;;;22.60;11.48;;;;;;;;;;10463662;28;20032;-76
2023/01/04 12:36:51;;;;;;;21.35;11.05;;;;;;;;;;10465418;28;20582;-77
2023/01/04 12:42:00;;;;;;;22.80;10.68;;;;;;;;;;10463840;28;20024;-77
2023/01/04 12:52:44;;;;;;;25.67;10.95;;;;;;;;;;10481498;28;20107;-77
2023/01/04 12:57:44;;;;;;;19.88;10.73;;;;;;;;;;10464154;28;20024;-76
2023/01/04 13:03:05;;;;;;;19.73;11.13;;;;;;;;;;10467973;28;20024;-76
2023/01/04 13:08:09;;;;;;;21.98;10.50;;;;;;;;;;10420214;28;20048;-72
2023/01/04 13:13:22;;;;;;;20.88;11.38;;;;;;;;;;10475429;28;20059;-73
2023/01/04 13:18:36;;;;;;;22.48;12.10;;;;;;;;;;10463114;28;20023;-75
2023/01/04 13:23:37;;;;;;;24.88;11.25;;;;;;;;;;10480408;28;20495;-76
2023/01/04 13:28:37;;;;;;;23.90;11.63;;;;;;;;;;10464052;28;20028;-72
2023/01/04 13:33:38;;;;;;;27.17;11.27;;;;;;;;;;10465252;28;20482;-74
2023/01/04 13:38:38;;;;;;;23.75;11.02;;;;;;;;;;10462229;28;20592;-77
2023/01/04 13:43:39;;;;;;;26.02;13.18;;;;;;;;;;10492391;28;20425;-73
2023/01/04 13:48:40;;;;;;;25.27;11.52;;;;;;;;;;10453384;28;20020;-74
2023/01/04 13:53:41;;;;;;;21.45;10.73;;;;;;;;;;10455531;28;20028;-73
2023/01/04 13:58:42;;;;;;;22.73;12.45;;;;;;;;;;10469843;28;20490;-73
2023/01/04 14:03:45;;;;;;;26.20;12.73;;;;;;;;;;10469678;28;20391;-74
2023/01/04 14:08:57;;;;;;;25.15;11.93;;;;;;;;;;10468881;28;20025;-76
2023/01/04 14:13:57;;;;;;;26.02;12.65;;;;;;;;;;10478504;28;20501;-76
2023/01/04 14:19:18;;;;;;;28.20;13.05;;;;;;;;;;10491878;28;20031;-73
2023/01/04 14:24:31;;;;;;;26.73;12.15;;;;;;;;;;10454320;28;20399;-77
2023/01/04 14:29:32;;;;;;;25.80;12.27;;;;;;;;;;10468948;28;20100;-77
2023/01/04 14:34:34;;;;;;;22.70;12.82;;;;;;;;;;10469079;28;20430;-74
2023/01/04 14:39:35;;;;;;;28.20;14.38;;;;;;;;;;10468954;28;20082;-74
2023/01/04 14:44:39;;;;;;;28.80;13.37;;;;;;;;;;10467713;28;20031;-73
2023/01/04 14:49:40;;;;;;;30.13;12.90;;;;;;;;;;10479623;28;20540;-74
2023/01/04 14:54:40;;;;;;;31.65;14.40;;;;;;;;;;10463959;28;20082;-73
2023/01/04 14:59:43;;;;;;;25.65;12.13;;;;;;;;;;10484731;28;20025;-77
2023/01/04 15:04:43;;;;;;;23.95;12.35;;;;;;;;;;10496717;28;20024;-76
2023/01/04 15:09:44;;;;;;;29.83;12.88;;;;;;;;;;10465483;28;20339;-77
2023/01/04 15:14:44;;;;;;;29.87;12.67;;;;;;;;;;10469363;28;21710;-76
2023/01/04 15:19:44;;;;;;;34.47;13.93;;;;;;;;;;10464084;28;20048;-76
2023/01/04 15:24:45;;;;;;;35.15;14.63;;;;;;;;;;10466553;28;20522;-76
2023/01/04 15:29:45;;;;;;;36.40;16.27;;;;;;;;;;10467992;28;20633;-77
2023/01/04 15:34:47;;;;;;;31.92;14.73;;;;;;;;;;10463552;28;20036;-73
2023/01/04 15:39:47;;;;;;;42.65;17.02;;;;;;;;;;10483634;28;20028;-73
2023/01/04 15:44:48;;;;;;;35.63;17.17;;;;;;;;;;10468832;28;20455;-72
2023/01/04 15:49:48;;;;;;;37.28;16.85;;;;;;;;;;10484296;28;20029;-75
2023/01/04 15:54:48;;;;;;;39.53;17.92;;;;;;;;;;10465557;28;20387;-72
2023/01/04 15:59:48;;;;;;;43.33;19.02;;;;;;;;;;10469511;28;20020;-74
2023/01/04 16:04:49;;;;;;;41.27;18.30;;;;;;;;;;10466984;28;20119;-73
2023/01/04 16:09:50;;;;;;;36.47;18.90;;;;;;;;;;10467044;28;20024;-72
2023/01/04 16:14:50;;;;;;;35.42;17.88;;;;;;;;;;10468211;28;20371;-73
2023/01/04 16:19:50;;;;;;;39.60;18.67;;;;;;;;;;10465794;28;20033;-73
2023/01/04 16:24:50;;;;;;;37.15;18.15;;;;;;;;;;10415143;28;20367;-69
2023/01/04 16:29:51;;;;;;;39.07;18.83;;;;;;;;;;10402081;28;20021;-74
2023/01/04 16:34:51;;;;;;;39.07;19.03;;;;;;;;;;10414692;28;20021;-73
2023/01/04 16:39:51;;;;;;;44.40;19.37;;;;;;;;;;10399287;28;20283;-73
2023/01/04 16:44:52;;;;;;;37.58;18.02;;;;;;;;;;10400729;28;20025;-73
2023/01/04 16:49:52;;;;;;;41.00;18.37;;;;;;;;;;10398669;28;20021;-71
2023/01/04 16:54:54;;;;;;;38.33;18.70;;;;;;;;;;10383585;28;20049;-77
2023/01/04 16:59:54;;;;;;;48.42;20.30;;;;;;;;;;10396770;28;20022;-73
2023/01/04 17:04:58;;;;;;;45.15;20.83;;;;;;;;;;10397907;28;20215;-76
2023/01/04 17:09:59;;;;;;;40.17;18.88;;;;;;;;;;10401393;28;20018;-75
2023/01/04 17:14:59;;;;;;;42.75;20.08;;;;;;;;;;10409006;28;20131;-76
2023/01/04 17:20:00;;;;;;;44.47;19.65;;;;;;;;;;10399552;28;20083;-71
2023/01/04 17:25:02;;;;;;;47.20;19.85;;;;;;;;;;10461085;28;20111;-75
2023/01/04 17:30:02;;;;;;;42.30;20.05;;;;;;;;;;10460263;28;20032;-72
2023/01/04 17:35:03;;;;;;;44.88;19.75;;;;;;;;;;10468523;28;20031;-76
2023/01/04 17:40:03;;;;;;;43.23;19.67;;;;;;;;;;10462696;28;20632;-72
2023/01/04 17:45:04;;;;;;;39.08;19.35;;;;;;;;;;10459719;28;20336;-75
2023/01/04 17:50:04;;;;;;;47.03;21.67;;;;;;;;;;10478867;28;20036;-77
2023/01/04 17:55:05;;;;;;;53.40;21.05;;;;;;;;;;10476420;28;20259;-78
2023/01/04 18:00:06;;;;;;;47.08;22.65;;;;;;;;;;10474760;28;20808;-77
2023/01/04 18:05:06;;;;;;;40.40;19.65;;;;;;;;;;10483714;28;20017;-74
2023/01/04 18:10:11;;;;;;;42.83;20.27;;;;;;;;;;10457970;28;20911;-76
2023/01/04 18:15:11;;;;;;;39.97;21.02;;;;;;;;;;10458215;28;20267;-75
2023/01/04 18:20:11;;;;;;;43.95;20.70;;;;;;;;;;10458462;28;20024;-74
2023/01/04 18:25:11;;;;;;;43.83;20.58;;;;;;;;;;10457703;28;20044;-76
2023/01/04 18:30:12;;;;;;;46.25;19.60;;;;;;;;;;10480956;28;20147;-71
2023/01/04 18:35:12;;;;;;;47.13;19.52;;;;;;;;;;10466396;28;20040;-75
2023/01/04 18:40:13;;;;;;;45.30;19.67;;;;;;;;;;10461063;28;20028;-79
2023/01/04 18:45:14;;;;;;;44.27;20.00;;;;;;;;;;10455680;28;20047;-78
2023/01/04 18:50:15;;;;;;;45.75;19.70;;;;;;;;;;10465309;28;20068;-76
2023/01/04 18:55:15;;;;;;;50.92;23.63;;;;;;;;;;10469435;28;20153;-80
2023/01/04 19:00:16;;;;;;;58.85;26.13;;;;;;;;;;10462133;28;20021;-76
2023/01/04 19:05:17;;;;;;;82.90;28.42;;;;;;;;;;10464349;28;20115;-76
2023/01/04 19:10:18;;;;;;;111.18;38.10;;;;;;;;;;10484516;28;20078;-75
2023/01/04 19:15:18;;;;;;;162.90;57.25;;;;;;;;;;10462101;28;20025;-76
2023/01/04 19:20:18;;;;;;;167.13;58.87;;;;;;;;;;10464506;28;20115;-78
2023/01/04 19:25:18;;;;;;;72.65;29.50;;;;;;;;;;10462022;28;20336;-73
2023/01/04 19:30:19;;;;;;;46.13;20.43;;;;;;;;;;10458899;28;20391;-76
2023/01/04 19:35:19;;;;;;;44.95;22.27;;;;;;;;;;10464314;28;20024;-78
2023/01/04 19:40:19;;;;;;;45.50;21.07;;;;;;;;;;10459748;28;20025;-79
2023/01/04 19:45:20;;;;;;;41.47;19.80;;;;;;;;;;10465179;28;20410;-74
2023/01/04 19:50:20;;;;;;;42.63;20.97;;;;;;;;;;10465891;28;20373;-78
2023/01/04 19:55:20;;;;;;;55.03;20.97;;;;;;;;;;10467215;28;20016;-74
2023/01/04 20:00:21;;;;;;;48.25;20.10;;;;;;;;;;10465683;28;20262;-78
2023/01/04 20:05:22;;;;;;;52.38;20.75;;;;;;;;;;10483038;28;20019;-78
2023/01/04 20:10:22;;;;;;;50.23;23.23;;;;;;;;;;10466198;28;20512;-73
2023/01/04 20:15:23;;;;;;;47.05;22.25;;;;;;;;;;10464708;28;20559;-77
2023/01/04 20:20:23;;;;;;;47.40;21.67;;;;;;;;;;10460964;28;20024;-75
2023/01/04 20:25:23;;;;;;;50.10;21.70;;;;;;;;;;10434457;28;20041;-72
2023/01/04 20:30:23;;;;;;;42.47;20.52;;;;;;;;;;10438188;28;20025;-77
2023/01/04 20:35:24;;;;;;;48.17;21.30;;;;;;;;;;10435381;28;20025;-74
2023/01/04 20:40:25;;;;;;;43.30;19.40;;;;;;;;;;10431809;28;20017;-75
2023/01/04 20:45:25;;;;;;;46.80;21.15;;;;;;;;;;10434305;28;20274;-76
2023/01/04 20:50:25;;;;;;;50.93;23.57;;;;;;;;;;10434856;28;20028;-73
2023/01/04 20:55:26;;;;;;;56.47;23.10;;;;;;;;;;10438838;28;20114;-77
2023/01/04 21:00:26;;;;;;;52.50;24.73;;;;;;;;;;10439885;28;20450;-77
2023/01/04 21:05:26;;;;;;;46.40;22.52;;;;;;;;;;10438289;28;20035;-77
2023/01/04 21:10:26;;;;;;;44.72;20.55;;;;;;;;;;10436576;28;20507;-77
2023/01/04 21:15:27;;;;;;;39.50;20.83;;;;;;;;;;10427100;28;20457;-72
2023/01/04 21:20:27;;;;;;;42.60;19.23;;;;;;;;;;10439029;28;20048;-76
2023/01/04 21:25:27;;;;;;;41.00;19.57;;;;;;;;;;10412108;28;20544;-76
2023/01/04 21:30:27;;;;;;;47.63;20.13;;;;;;;;;;10390318;28;20025;-72
2023/01/04 21:35:28;;;;;;;45.10;18.95;;;;;;;;;;10404322;28;20025;-77
2023/01/04 21:40:28;;;;;;;44.33;18.50;;;;;;;;;;10395090;28;20033;-78
2023/01/04 21:45:28;;;;;;;44.03;18.95;;;;;;;;;;10412368;28;20025;-74
2023/01/04 21:50:29;;;;;;;40.08;17.35;;;;;;;;;;10396679;28;20037;-72
2023/01/04 21:55:29;;;;;;;36.65;16.50;;;;;;;;;;10399239;28;20518;-77
2023/01/04 22:00:30;;;;;;;37.00;17.50;;;;;;;;;;10398787;28;20029;-73
2023/01/04 22:05:30;;;;;;;40.65;19.05;;;;;;;;;;10417647;28;20053;-72
2023/01/04 22:10:30;;;;;;;34.95;17.45;;;;;;;;;;10399880;28;20222;-75
2023/01/04 22:15:31;;;;;;;37.38;16.73;;;;;;;;;;10403112;28;20632;-71
2023/01/04 22:20:31;;;;;;;44.37;18.07;;;;;;;;;;10412037;28;21123;-76
2023/01/04 22:25:32;;;;;;;43.13;19.77;;;;;;;;;;10440848;28;20295;-76
2023/01/04 22:30:33;;;;;;;40.50;19.63;;;;;;;;;;10446725;28;20020;-77
2023/01/04 22:35:36;;;;;;;42.78;19.77;;;;;;;;;;10445317;28;20088;-76
2023/01/04 22:40:42;;;;;;;41.45;19.02;;;;;;;;;;10434516;28;20042;-76
2023/01/04 22:45:42;;;;;;;51.08;20.10;;;;;;;;;;10445617;28;20498;-79
2023/01/04 22:50:43;;;;;;;46.00;19.80;;;;;;;;;;10446497;28;20024;-79
2023/01/04 22:55:43;;;;;;;42.43;19.63;;;;;;;;;;10445917;28;20439;-78
2023/01/04 23:00:43;;;;;;;41.00;19.58;;;;;;;;;;10420157;28;20029;-78
2023/01/04 23:05:44;;;;;;;37.67;19.15;;;;;;;;;;10421281;28;20029;-78
2023/01/04 23:10:44;;;;;;;48.23;22.07;;;;;;;;;;10444786;28;20016;-72
2023/01/04 23:15:44;;;;;;;49.50;20.05;;;;;;;;;;10443817;28;20438;-76
2023/01/04 23:20:50;;;;;;;43.13;18.15;;;;;;;;;;10444218;28;20040;-77
2023/01/04 23:25:51;;;;;;;47.70;20.25;;;;;;;;;;10433773;28;20053;-79
2023/01/04 23:30:51;;;;;;;46.28;20.13;;;;;;;;;;10441518;28;20033;-73
2023/01/04 23:35:51;;;;;;;37.92;18.15;;;;;;;;;;10444438;28;20067;-78
2023/01/04 23:40:51;;;;;;;46.22;19.63;;;;;;;;;;10443787;28;20039;-77
2023/01/04 23:45:52;;;;;;;46.00;18.42;;;;;;;;;;10443248;28;20029;-73
2023/01/04 23:50:56;;;;;;;42.63;19.10;;;;;;;;;;10443139;28;20031;-72
2023/01/04 23:56:00;;;;;;;42.72;19.33;;;;;;;;;;10443140;28;20031;-78
